BNA weather

Nashville International Airport
Nashville, Tennessee, United States

Public forecast

Using degrees Fahrenheit for public forecast. Weather courtesy of forecast.io.

Current aviation weather report (METAR) for Nashville International Airport

Retrieved 2019/12/05 20:53 UTC (1 hour ago):

KBNA 052053Z 25008KT 10SM FEW250 17/M03 A3009 RMK AO2 SLP188 T01721028 56013

Aviation forecast (TAF) for Nashville International Airport

Retrieved 2019/12/05 18:33 UTC (3 hours ago):

TAF KBNA 051730Z 0518/0618 17005KT P6SM SCT120 FM060700 16003KT P6SM VCSH OVC060